Terminal Aerodrome Forecast
Issued by NWS

Home | Current Version | Previous Version | Text Only | Print | Product List | Glossary Off
Versions: 1 2 3 4 5 6 7 8 9 10 11 12 13 14 15 16 17 18 19

924
FTUS43 KICT 121306 AAA
TAFHUT
TAF AMD
KHUT 121306Z 1213/1312 01012KT P6SM SCT015
      TEMPO 1213/1217 SCT009 BKN011
     FM121700 02014KT P6SM SCT015 OVC200
     FM130000 03011KT P6SM OVC110
     FM130600 08009KT P6SM OVC130=

USA.gov is the U.S. government's official web portal to all federal, state and local government web resources and services.